createdAt,value
2023-01-30T00:00:56.947Z,78.49
2023-01-30T00:03:24.579Z,78.62
2023-01-30T00:05:51.261Z,78.59
2023-01-30T00:08:17.714Z,78.76
2023-01-30T00:10:44.780Z,79.10
2023-01-30T00:13:11.710Z,78.92
2023-01-30T00:15:38.142Z,79.21
2023-01-30T00:18:04.610Z,79.26
2023-01-30T00:20:31.020Z,79.08
2023-01-30T00:23:01.153Z,79.27
2023-01-30T00:25:28.571Z,79.25
2023-01-30T00:27:55.160Z,79.03
2023-01-30T00:30:21.657Z,78.95
2023-01-30T00:32:48.094Z,79.18
2023-01-30T00:35:14.592Z,79.32
2023-01-30T00:37:41.055Z,79.44
2023-01-30T00:40:07.981Z,79.68
2023-01-30T00:42:52.900Z,79.67
2023-01-30T00:45:57.859Z,79.91
2023-01-30T00:48:24.414Z,79.96
2023-01-30T00:50:50.837Z,79.56
2023-01-30T00:53:17.437Z,79.93
2023-01-30T00:55:44.955Z,79.71
2023-01-30T00:58:12.323Z,79.74
2023-01-30T01:00:38.980Z,79.99
2023-01-30T01:03:05.509Z,80.15
2023-01-30T01:05:31.941Z,79.59
2023-01-30T01:07:58.381Z,80.19
2023-01-30T01:10:24.834Z,79.98
2023-01-30T01:12:54.641Z,80.65
2023-01-30T01:15:22.424Z,80.35
2023-01-30T01:17:49.253Z,80.66
2023-01-30T01:20:16.873Z,80.71
2023-01-30T01:22:43.323Z,80.87
2023-01-30T01:25:10.664Z,80.77
2023-01-30T01:27:37.454Z,80.44
2023-01-30T01:30:05.254Z,80.34
2023-01-30T01:32:31.696Z,80.14
2023-01-30T01:34:58.165Z,80.71
2023-01-30T01:37:24.564Z,80.17
2023-01-30T01:40:09.621Z,80.49
2023-01-30T01:42:37.947Z,80.24
2023-01-30T01:45:16.553Z,80.00
2023-01-30T01:48:00.465Z,80.10
2023-01-30T01:50:44.503Z,80.34
2023-01-30T01:53:12.077Z,80.27
2023-01-30T01:55:39.341Z,80.41
2023-01-30T01:58:10.972Z,80.25
2023-01-30T02:00:37.407Z,80.03
2023-01-30T02:03:07.186Z,80.61
2023-01-30T02:05:35.554Z,80.74
2023-01-30T02:08:14.749Z,80.95
2023-01-30T02:11:27.295Z,80.33
2023-01-30T02:13:53.838Z,80.78
2023-01-30T02:16:20.413Z,80.70
2023-01-30T02:18:47.350Z,80.63
2023-01-30T02:21:37.591Z,80.45
2023-01-30T02:24:13.053Z,80.96
2023-01-30T02:26:50.133Z,80.80
2023-01-30T02:29:54.084Z,80.71
2023-01-30T02:32:46.016Z,80.38
2023-01-30T02:35:36.659Z,80.86
2023-01-30T02:38:10.853Z,80.79
2023-01-30T02:40:53.224Z,81.63
2023-01-30T02:43:34.135Z,81.57
2023-01-30T02:46:05.676Z,81.79
2023-01-30T02:48:40.072Z,82.01
2023-01-30T02:51:11.947Z,82.23
2023-01-30T02:53:38.404Z,82.03
2023-01-30T02:56:05.824Z,82.10
2023-01-30T02:58:38.891Z,82.35
2023-01-30T03:01:31.963Z,81.99
2023-01-30T03:04:08.593Z,82.21
2023-01-30T03:06:45.827Z,82.27
2023-01-30T03:09:25.650Z,82.07
2023-01-30T03:12:12.733Z,82.45
2023-01-30T03:14:59.422Z,82.54
2023-01-30T03:17:27.059Z,82.62
2023-01-30T03:19:54.219Z,82.49
2023-01-30T03:22:21.608Z,82.96
2023-01-30T03:24:50.102Z,83.07
2023-01-30T03:27:16.614Z,82.64
2023-01-30T03:29:43.048Z,83.14
2023-01-30T03:32:09.495Z,82.67
2023-01-30T03:34:35.914Z,82.93
2023-01-30T03:37:02.776Z,83.28
2023-01-30T03:39:29.212Z,82.83
2023-01-30T03:41:55.638Z,82.89
2023-01-30T03:44:22.269Z,82.84
2023-01-30T03:46:48.843Z,82.74
2023-01-30T03:49:15.291Z,83.13
2023-01-30T03:51:41.756Z,83.34
2023-01-30T03:54:08.161Z,83.34
2023-01-30T03:56:34.579Z,83.17
2023-01-30T03:59:01.216Z,83.13
2023-01-30T04:01:27.665Z,83.18
2023-01-30T04:03:54.139Z,83.21
2023-01-30T04:06:20.534Z,83.42
2023-01-30T04:08:46.972Z,83.33
2023-01-30T04:11:13.455Z,83.16
2023-01-30T04:13:39.856Z,83.22
2023-01-30T04:16:20.525Z,83.01
2023-01-30T04:18:46.998Z,83.55
2023-01-30T04:21:14.235Z,83.51
2023-01-30T04:23:40.727Z,83.10
2023-01-30T04:26:07.601Z,83.82
2023-01-30T04:28:34.302Z,83.39
2023-01-30T04:31:00.925Z,83.52
2023-01-30T04:33:27.457Z,83.56
2023-01-30T04:35:58.304Z,83.73
2023-01-30T04:38:25.889Z,83.80
2023-01-30T04:40:53.845Z,83.98
2023-01-30T04:43:22.035Z,83.82
2023-01-30T04:45:49.422Z,84.42
2023-01-30T04:48:16.732Z,84.86
2023-01-30T04:50:44.265Z,84.71
2023-01-30T04:53:11.221Z,85.35
2023-01-30T04:55:37.668Z,85.03
2023-01-30T04:58:04.095Z,85.44
2023-01-30T05:00:30.608Z,85.77
2023-01-30T05:02:57.190Z,85.87
2023-01-30T05:05:24.693Z,86.45
2023-01-30T05:07:51.091Z,86.77
2023-01-30T05:10:17.826Z,87.32
2023-01-30T05:12:44.462Z,87.37
2023-01-30T05:15:11.787Z,88.08
2023-01-30T05:17:38.671Z,88.37
2023-01-30T05:20:06.491Z,88.65
2023-01-30T05:22:32.969Z,88.96
2023-01-30T05:24:59.494Z,89.23
2023-01-30T05:27:26.212Z,89.86
2023-01-30T05:29:52.620Z,90.31
2023-01-30T05:32:19.736Z,90.73
2023-01-30T05:34:46.431Z,91.31
2023-01-30T05:37:12.889Z,91.63
2023-01-30T05:39:39.345Z,91.76
2023-01-30T05:42:05.821Z,91.98
2023-01-30T05:44:32.266Z,92.33
2023-01-30T05:46:58.703Z,92.31
2023-01-30T05:49:25.158Z,92.49
2023-01-30T05:51:51.767Z,92.11
2023-01-30T05:54:18.194Z,92.56
2023-01-30T05:56:44.751Z,92.67
2023-01-30T05:59:12.055Z,92.89
2023-01-30T06:01:38.491Z,93.32
2023-01-30T06:04:05.325Z,92.98
2023-01-30T06:06:31.787Z,93.25
2023-01-30T06:08:58.202Z,92.95
2023-01-30T06:11:25.706Z,93.36
2023-01-30T06:13:52.113Z,93.40
2023-01-30T06:16:19.110Z,93.58
2023-01-30T06:18:48.996Z,93.95
2023-01-30T06:21:15.866Z,93.64
2023-01-30T06:23:42.928Z,93.98
2023-01-30T06:26:09.533Z,93.75
2023-01-30T06:28:36.489Z,94.46
2023-01-30T06:31:02.962Z,93.95
2023-01-30T06:33:29.472Z,94.55
2023-01-30T06:35:55.916Z,95.57
2023-01-30T06:38:22.317Z,95.48
2023-01-30T06:40:49.692Z,95.25
2023-01-30T06:43:16.606Z,95.04
2023-01-30T06:45:43.056Z,95.24
2023-01-30T06:48:09.591Z,95.25
2023-01-30T06:50:36.267Z,95.72
2023-01-30T06:53:05.133Z,95.67
2023-01-30T06:55:34.543Z,95.60
2023-01-30T06:58:12.943Z,96.00
2023-01-30T07:00:40.558Z,95.40
2023-01-30T07:03:14.762Z,96.04
2023-01-30T07:05:42.591Z,95.81
2023-01-30T07:08:09.213Z,96.17
2023-01-30T07:10:36.011Z,95.68
2023-01-30T07:13:03.072Z,95.71
2023-01-30T07:15:29.720Z,95.40
2023-01-30T07:17:56.165Z,95.17
2023-01-30T07:20:22.832Z,94.79
2023-01-30T07:22:53.878Z,94.92
2023-01-30T07:25:21.992Z,94.93
2023-01-30T07:27:59.650Z,95.05
2023-01-30T07:30:27.782Z,94.86
2023-01-30T07:32:55.666Z,95.12
2023-01-30T07:35:23.593Z,94.71
2023-01-30T07:37:51.062Z,94.81
2023-01-30T07:40:20.679Z,94.67
2023-01-30T07:43:04.756Z,94.57
2023-01-30T07:45:35.916Z,95.18
2023-01-30T07:48:02.338Z,94.86
2023-01-30T07:50:28.848Z,94.96
2023-01-30T07:52:55.367Z,94.41
2023-01-30T07:55:21.790Z,95.06
2023-01-30T07:57:48.227Z,94.35
2023-01-30T08:00:15.400Z,94.35
2023-01-30T08:02:41.993Z,94.06
2023-01-30T08:05:08.854Z,94.25
2023-01-30T08:07:35.273Z,94.01
2023-01-30T08:10:01.693Z,93.61
2023-01-30T08:12:29.077Z,93.26
2023-01-30T08:14:55.815Z,93.06
2023-01-30T08:17:22.380Z,92.35
2023-01-30T08:19:48.773Z,92.06
2023-01-30T08:22:15.312Z,91.50
2023-01-30T08:24:41.828Z,91.27
2023-01-30T08:27:08.633Z,90.88
2023-01-30T08:29:35.040Z,89.99
2023-01-30T08:32:01.685Z,89.00
2023-01-30T08:34:28.161Z,88.11
2023-01-30T08:36:54.571Z,87.54
2023-01-30T08:39:20.997Z,86.81
2023-01-30T08:41:47.411Z,86.17
2023-01-30T08:44:13.915Z,85.41
2023-01-30T08:46:40.394Z,85.19
2023-01-30T08:49:06.846Z,84.53
2023-01-30T08:51:33.606Z,84.29
2023-01-30T08:54:00.022Z,83.48
2023-01-30T08:56:26.458Z,81.95
2023-01-30T08:58:52.879Z,80.85
2023-01-30T09:01:19.404Z,80.31
2023-01-30T09:03:45.836Z,79.50
2023-01-30T09:06:12.305Z,79.01
2023-01-30T09:08:38.713Z,78.07
2023-01-30T09:11:05.804Z,77.70
2023-01-30T09:13:32.545Z,77.53
2023-01-30T09:15:59.185Z,77.74
2023-01-30T09:18:26.132Z,77.81
2023-01-30T09:20:53.681Z,78.10
2023-01-30T09:23:20.251Z,78.35
2023-01-30T09:25:47.173Z,78.06
2023-01-30T09:28:14.645Z,77.22
2023-01-30T09:30:41.211Z,77.04
2023-01-30T09:33:07.844Z,76.30
2023-01-30T09:35:34.284Z,75.92
2023-01-30T09:38:01.496Z,75.82
2023-01-30T09:40:29.274Z,75.87
2023-01-30T09:43:14.359Z,76.58
2023-01-30T09:45:45.292Z,76.93
2023-01-30T09:49:01.642Z,76.14
2023-01-30T09:51:36.099Z,75.33
2023-01-30T09:54:15.142Z,74.31
2023-01-30T09:56:41.675Z,73.69
2023-01-30T09:59:17.518Z,73.43
2023-01-30T10:02:07.015Z,73.33
2023-01-30T10:04:35.416Z,72.94
2023-01-30T10:07:25.708Z,73.02
2023-01-30T10:10:15.714Z,72.44
2023-01-30T10:13:07.504Z,71.52
2023-01-30T10:15:49.623Z,71.14
2023-01-30T10:18:22.046Z,70.74
2023-01-30T10:21:06.878Z,70.29
2023-01-30T10:24:02.711Z,69.36
2023-01-30T10:26:31.242Z,69.78
2023-01-30T10:29:08.208Z,68.92
2023-01-30T10:31:39.846Z,68.67
2023-01-30T10:34:34.355Z,68.79
2023-01-30T10:37:07.757Z,68.60
2023-01-30T10:39:55.326Z,69.31
2023-01-30T10:42:28.497Z,68.20
2023-01-30T10:45:00.986Z,67.02
2023-01-30T10:48:06.371Z,67.83
2023-01-30T10:50:54.655Z,67.74
2023-01-30T10:53:37.057Z,67.88
2023-01-30T10:56:34.639Z,67.87
2023-01-30T10:59:11.482Z,68.02
2023-01-30T11:01:44.166Z,67.56
2023-01-30T11:04:32.230Z,67.76
2023-01-30T11:07:00.405Z,68.71
2023-01-30T11:09:40.308Z,71.29
2023-01-30T11:12:06.916Z,71.15
2023-01-30T11:14:53.129Z,71.13
2023-01-30T11:17:21.134Z,71.76
2023-01-30T11:19:55.478Z,71.89
2023-01-30T11:22:25.849Z,71.69
2023-01-30T11:25:01.550Z,71.03
2023-01-30T11:27:30.561Z,70.75
2023-01-30T11:30:06.602Z,69.26
2023-01-30T11:32:33.360Z,68.52
2023-01-30T11:35:24.846Z,68.05
2023-01-30T11:37:53.304Z,67.37
2023-01-30T11:40:23.916Z,67.59
2023-01-30T11:42:52.890Z,67.39
2023-01-30T11:45:19.693Z,67.27
2023-01-30T11:47:57.303Z,66.23
2023-01-30T11:50:32.725Z,66.76
2023-01-30T11:53:04.211Z,67.15
2023-01-30T11:55:33.867Z,67.30
2023-01-30T11:58:01.470Z,67.08
2023-01-30T12:00:43.683Z,67.06
2023-01-30T12:03:12.530Z,66.59
2023-01-30T12:05:42.756Z,66.95
2023-01-30T12:08:31.279Z,66.11
2023-01-30T12:11:02.479Z,65.40
2023-01-30T12:13:36.069Z,65.76
2023-01-30T12:16:22.839Z,66.90
2023-01-30T12:19:06.304Z,69.21
2023-01-30T12:21:46.476Z,70.22
2023-01-30T12:24:22.858Z,73.88
2023-01-30T12:26:59.519Z,75.44
2023-01-30T12:29:41.014Z,76.42
2023-01-30T12:32:14.241Z,77.25
2023-01-30T12:34:41.082Z,77.33
2023-01-30T12:37:22.616Z,77.66
2023-01-30T12:39:58.046Z,78.50
2023-01-30T12:42:55.475Z,78.97
2023-01-30T12:45:31.327Z,79.35
2023-01-30T12:48:16.445Z,78.99
2023-01-30T12:50:51.994Z,78.29
2023-01-30T12:53:24.555Z,78.19
2023-01-30T12:56:26.116Z,77.87
2023-01-30T12:59:00.957Z,76.65
2023-01-30T13:01:36.260Z,76.12
2023-01-30T13:04:13.896Z,75.25
2023-01-30T13:06:54.040Z,75.33
2023-01-30T13:09:53.971Z,76.20
2023-01-30T13:12:35.586Z,77.33
2023-01-30T13:15:31.843Z,78.53
2023-01-30T13:18:15.185Z,79.40
2023-01-30T13:20:54.784Z,79.90
2023-01-30T13:23:36.322Z,81.63
2023-01-30T13:26:09.093Z,82.55
2023-01-30T13:28:41.920Z,82.91
2023-01-30T13:31:12.759Z,82.46
2023-01-30T13:33:43.709Z,82.88
2023-01-30T13:36:21.201Z,83.14
2023-01-30T13:38:59.679Z,83.53
2023-01-30T13:41:30.047Z,83.72
2023-01-30T13:43:56.786Z,84.03
2023-01-30T13:46:26.431Z,84.07
2023-01-30T13:49:05.284Z,83.76
2023-01-30T13:51:39.915Z,84.28
2023-01-30T13:54:16.663Z,84.06
2023-01-30T13:56:46.453Z,83.73
2023-01-30T13:59:37.376Z,83.78
2023-01-30T14:02:03.925Z,83.41
2023-01-30T14:04:30.386Z,83.55
2023-01-30T14:07:28.896Z,83.23
2023-01-30T14:10:10.508Z,82.59
2023-01-30T14:12:50.499Z,82.26
2023-01-30T14:15:17.317Z,82.10
2023-01-30T14:18:19.778Z,82.98
2023-01-30T14:20:48.204Z,83.07
2023-01-30T14:23:22.146Z,83.76
2023-01-30T14:25:53.328Z,83.81
2023-01-30T14:28:19.651Z,83.12
2023-01-30T14:30:47.678Z,82.89
2023-01-30T14:33:23.112Z,82.57
2023-01-30T14:36:15.096Z,82.92
2023-01-30T14:38:42.433Z,83.23
2023-01-30T14:41:24.020Z,83.17
2023-01-30T14:43:53.352Z,83.07
2023-01-30T14:46:20.213Z,82.99
2023-01-30T14:48:50.054Z,83.21
2023-01-30T14:51:19.355Z,82.41
2023-01-30T14:53:55.311Z,82.50
2023-01-30T14:56:41.947Z,82.49
2023-01-30T14:59:17.572Z,82.56
2023-01-30T15:02:01.298Z,82.54
2023-01-30T15:04:32.076Z,82.80
2023-01-30T15:07:01.168Z,82.62
2023-01-30T15:09:29.082Z,83.27
2023-01-30T15:12:07.047Z,83.22
2023-01-30T15:15:02.695Z,83.38
2023-01-30T15:18:07.203Z,83.33
2023-01-30T15:21:01.407Z,83.94
2023-01-30T15:23:46.001Z,84.07
2023-01-30T15:26:34.930Z,83.56
2023-01-30T15:29:10.357Z,83.34
2023-01-30T15:31:36.833Z,83.48
2023-01-30T15:34:03.315Z,83.22
2023-01-30T15:36:34.792Z,81.30
2023-01-30T15:39:02.336Z,81.40
2023-01-30T15:41:39.471Z,81.14
2023-01-30T15:44:32.449Z,81.74
2023-01-30T15:47:30.419Z,81.57
2023-01-30T15:50:02.735Z,81.77
2023-01-30T15:52:46.287Z,81.95
2023-01-30T15:55:36.558Z,82.26
2023-01-30T15:58:06.227Z,82.66
2023-01-30T16:00:37.610Z,83.12
2023-01-30T16:03:06.151Z,83.31
2023-01-30T16:05:32.576Z,83.56
2023-01-30T16:08:10.327Z,83.58
2023-01-30T16:10:44.538Z,83.57
2023-01-30T16:13:11.007Z,84.13
2023-01-30T16:15:41.967Z,84.22
2023-01-30T16:18:24.999Z,84.25
2023-01-30T16:21:02.167Z,84.42
2023-01-30T16:23:58.219Z,84.24
2023-01-30T16:26:24.666Z,84.86
2023-01-30T16:28:51.698Z,84.39
2023-01-30T16:31:18.528Z,84.31
2023-01-30T16:33:54.281Z,83.40
2023-01-30T16:36:20.572Z,83.78
2023-01-30T16:38:48.775Z,83.64
2023-01-30T16:41:39.321Z,83.20
2023-01-30T16:44:19.793Z,83.15
2023-01-30T16:46:49.467Z,82.98
2023-01-30T16:49:38.943Z,82.79
2023-01-30T16:52:13.831Z,82.76
2023-01-30T16:54:46.199Z,83.05
2023-01-30T16:57:28.557Z,83.03
2023-01-30T16:59:55.854Z,83.26
2023-01-30T17:02:31.345Z,83.34
2023-01-30T17:05:20.429Z,83.58
2023-01-30T17:07:47.642Z,83.48
2023-01-30T17:10:42.010Z,82.98
2023-01-30T17:13:30.952Z,82.97
2023-01-30T17:16:22.902Z,82.92
2023-01-30T17:18:50.700Z,82.42
2023-01-30T17:21:17.706Z,82.59
2023-01-30T17:23:47.923Z,83.09
2023-01-30T17:26:15.279Z,83.52
2023-01-30T17:28:41.946Z,83.23
2023-01-30T17:31:15.953Z,84.35
2023-01-30T17:33:42.554Z,84.43
2023-01-30T17:36:24.253Z,84.84
2023-01-30T17:38:51.110Z,85.18
2023-01-30T17:41:23.225Z,85.23
2023-01-30T17:43:50.872Z,85.08
2023-01-30T17:46:17.623Z,84.46
2023-01-30T17:48:44.609Z,83.93
2023-01-30T17:51:14.283Z,83.95
2023-01-30T17:53:41.536Z,83.48
2023-01-30T17:56:19.639Z,83.00
2023-01-30T17:58:46.133Z,82.46
2023-01-30T18:01:15.061Z,82.34
2023-01-30T18:03:43.258Z,81.98
2023-01-30T18:06:15.001Z,81.80
2023-01-30T18:08:41.918Z,81.58
2023-01-30T18:11:11.562Z,81.52
2023-01-30T18:13:39.656Z,81.10
2023-01-30T18:16:06.634Z,81.22
2023-01-30T18:18:33.184Z,81.33
2023-01-30T18:20:59.593Z,81.42
2023-01-30T18:23:26.120Z,81.44
2023-01-30T18:25:52.649Z,81.00
2023-01-30T18:28:19.082Z,81.10
2023-01-30T18:30:45.574Z,80.84
2023-01-30T18:33:12.058Z,80.80
2023-01-30T18:35:39.072Z,80.88
2023-01-30T18:38:05.540Z,81.33
2023-01-30T18:40:31.939Z,81.49
2023-01-30T18:42:58.402Z,81.40
2023-01-30T18:45:24.842Z,81.21
2023-01-30T18:47:52.466Z,81.56
2023-01-30T18:50:19.313Z,81.68
2023-01-30T18:52:47.338Z,81.24
2023-01-30T18:55:13.870Z,81.15
2023-01-30T18:57:40.312Z,81.58
2023-01-30T19:00:08.961Z,81.52
2023-01-30T19:02:35.580Z,81.93
2023-01-30T19:05:02.064Z,81.91
2023-01-30T19:07:28.485Z,81.79
2023-01-30T19:09:56.363Z,81.51
2023-01-30T19:12:42.345Z,81.37
2023-01-30T19:15:09.331Z,80.85
2023-01-30T19:17:35.769Z,80.69
2023-01-30T19:20:04.083Z,80.70
2023-01-30T19:22:30.511Z,80.80
2023-01-30T19:24:57.072Z,80.62
2023-01-30T19:27:23.639Z,80.67
2023-01-30T19:29:50.389Z,80.85
2023-01-30T19:32:16.936Z,81.37
2023-01-30T19:34:43.989Z,82.03
2023-01-30T19:37:10.470Z,83.37
2023-01-30T19:39:36.943Z,83.90
2023-01-30T19:42:03.402Z,84.81
2023-01-30T19:44:29.835Z,85.69
2023-01-30T19:46:56.460Z,86.35
2023-01-30T19:49:22.912Z,86.72
2023-01-30T19:51:49.363Z,86.87
2023-01-30T19:54:16.062Z,86.97
2023-01-30T19:56:47.247Z,86.85
2023-01-30T19:59:15.935Z,86.68
2023-01-30T20:01:42.536Z,85.91
2023-01-30T20:04:08.996Z,86.14
2023-01-30T20:06:37.252Z,85.88
2023-01-30T20:09:06.247Z,85.60
2023-01-30T20:11:36.895Z,85.04
2023-01-30T20:14:05.294Z,85.22
2023-01-30T20:16:32.159Z,84.75
2023-01-30T20:19:06.931Z,84.50
2023-01-30T20:21:34.378Z,83.38
2023-01-30T20:24:01.751Z,83.28
2023-01-30T20:26:31.107Z,83.31
2023-01-30T20:28:58.215Z,82.69
2023-01-30T20:31:26.423Z,82.97
2023-01-30T20:33:55.648Z,82.84
2023-01-30T20:36:22.321Z,82.22
2023-01-30T20:38:49.612Z,82.43
2023-01-30T20:41:23.083Z,82.56
2023-01-30T20:43:51.544Z,82.23
2023-01-30T20:46:19.708Z,82.33
2023-01-30T20:48:46.249Z,82.30
2023-01-30T20:51:15.054Z,82.22
2023-01-30T20:53:50.327Z,82.45
2023-01-30T20:56:17.760Z,82.17
2023-01-30T20:58:44.343Z,81.89
2023-01-30T21:01:17.991Z,81.36
2023-01-30T21:03:45.763Z,80.73
2023-01-30T21:06:12.273Z,80.53
2023-01-30T21:08:39.433Z,80.11
2023-01-30T21:11:14.074Z,80.40
2023-01-30T21:13:41.177Z,79.99
2023-01-30T21:16:12.154Z,79.67
2023-01-30T21:18:40.384Z,79.17
2023-01-30T21:21:07.792Z,79.50
2023-01-30T21:23:34.493Z,79.27
2023-01-30T21:26:06.289Z,79.47
2023-01-30T21:28:32.729Z,79.18
2023-01-30T21:31:14.040Z,79.40
2023-01-30T21:33:40.919Z,79.08
2023-01-30T21:36:08.446Z,79.05
2023-01-30T21:38:53.406Z,78.99
2023-01-30T21:41:51.807Z,78.71
2023-01-30T21:44:19.621Z,78.83
2023-01-30T21:46:47.540Z,79.15
2023-01-30T21:49:17.771Z,78.88
2023-01-30T21:51:45.825Z,78.59
2023-01-30T21:54:12.756Z,78.15
2023-01-30T21:56:40.110Z,78.07
2023-01-30T21:59:07.130Z,77.64
2023-01-30T22:01:34.720Z,77.65
2023-01-30T22:04:03.216Z,77.72
2023-01-30T22:06:31.216Z,77.50
2023-01-30T22:09:01.623Z,77.36
2023-01-30T22:11:29.105Z,77.77
2023-01-30T22:13:56.153Z,78.17
2023-01-30T22:16:26.045Z,78.51
2023-01-30T22:18:54.597Z,80.29
2023-01-30T22:21:22.893Z,81.56
2023-01-30T22:23:50.928Z,82.52
2023-01-30T22:26:18.965Z,83.37
2023-01-30T22:28:45.938Z,83.73
2023-01-30T22:31:17.968Z,85.59
2023-01-30T22:33:45.586Z,87.41
2023-01-30T22:36:13.226Z,87.90
2023-01-30T22:38:43.871Z,88.30
2023-01-30T22:41:14.572Z,89.20
2023-01-30T22:43:55.339Z,89.81
2023-01-30T22:46:25.083Z,90.88
2023-01-30T22:48:51.666Z,91.31
2023-01-30T22:51:25.553Z,92.00
2023-01-30T22:54:00.155Z,92.25
2023-01-30T22:56:28.979Z,92.08
2023-01-30T22:58:55.823Z,92.61
2023-01-30T23:01:24.679Z,92.02
2023-01-30T23:03:56.790Z,92.06
2023-01-30T23:06:23.724Z,91.89
2023-01-30T23:08:50.994Z,91.73
2023-01-30T23:11:18.375Z,91.16
2023-01-30T23:13:47.699Z,90.50
2023-01-30T23:16:15.718Z,90.10
2023-01-30T23:18:58.618Z,89.64
2023-01-30T23:21:27.902Z,88.51
2023-01-30T23:23:56.957Z,88.62
2023-01-30T23:26:25.644Z,87.85
2023-01-30T23:28:52.568Z,87.72
2023-01-30T23:31:21.276Z,87.42
2023-01-30T23:33:48.061Z,86.78
2023-01-30T23:36:15.122Z,86.12
2023-01-30T23:38:41.762Z,85.49
2023-01-30T23:41:09.645Z,85.52
2023-01-30T23:43:36.533Z,85.18
2023-01-30T23:46:16.905Z,85.40
2023-01-30T23:48:44.643Z,84.94
2023-01-30T23:51:11.498Z,84.46
2023-01-30T23:53:38.658Z,84.16
2023-01-30T23:56:05.887Z,83.85
2023-01-30T23:58:32.728Z,83.62
